Time;durP1;ratioP1;P1;durP2;ratioP2;P2;SDS_P1;SDS_P2;PMS_P1;PMS_P2;Temp;Humidity;BMP_temperature;BMP_pressure;BME280_temperature;BME280_humidity;BME280_pressure;Samples;Min_cycle;Max_cycle;Signal;HPM_P1;HPM_P2
2023/07/10 04:05:48;;;;;;;2.23;2.13;;;22.30;98.10;;;;;;5438020;23;20494;-63
2023/07/10 04:08:13;;;;;;;2.40;2.20;;;22.30;98.00;;;;;;4981511;28;20394;-63
2023/07/10 04:10:40;;;;;;;2.30;2.10;;;22.30;98.10;;;;;;4976750;28;20422;-62
2023/07/10 04:13:05;;;;;;;3.20;2.90;;;22.30;98.20;;;;;;4994225;28;20199;-62
2023/07/10 04:15:31;;;;;;;3.07;2.87;;;22.30;98.30;;;;;;4993729;28;20403;-62
2023/07/10 04:17:57;;;;;;;2.33;2.13;;;22.40;98.40;;;;;;4994167;28;20172;-62
2023/07/10 04:20:22;;;;;;;2.50;2.30;;;22.50;98.30;;;;;;4976677;28;20187;-62
2023/07/10 04:22:48;;;;;;;2.90;2.50;;;22.60;98.40;;;;;;4994135;28;20294;-62
2023/07/10 04:25:14;;;;;;;2.67;2.50;;;22.60;98.40;;;;;;4993698;28;20186;-62
2023/07/10 04:27:39;;;;;;;3.60;3.30;;;22.70;98.40;;;;;;4988544;28;20181;-65
2023/07/10 04:30:06;;;;;;;2.83;2.63;;;22.80;98.10;;;;;;4964299;28;20410;-65
2023/07/10 04:32:31;;;;;;;2.77;2.57;;;22.80;98.20;;;;;;4972521;28;20174;-67
2023/07/10 04:34:57;;;;;;;3.10;2.73;;;22.80;98.20;;;;;;4973816;28;20439;-67
2023/07/10 04:37:22;;;;;;;2.77;2.57;;;22.80;98.20;;;;;;4974007;28;20256;-68
2023/07/10 04:39:48;;;;;;;3.20;3.00;;;22.90;98.20;;;;;;4974662;28;20168;-66
2023/07/10 04:42:13;;;;;;;2.80;2.60;;;23.00;98.20;;;;;;4974562;28;20206;-68
2023/07/10 04:44:39;;;;;;;4.37;3.87;;;23.00;98.30;;;;;;4959666;28;20262;-66
2023/07/10 04:47:05;;;;;;;2.93;2.57;;;23.00;98.70;;;;;;4955337;29;20194;-65
2023/07/10 04:49:30;;;;;;;3.90;2.97;;;23.10;98.70;;;;;;4938214;28;20180;-68
2023/07/10 04:51:56;;;;;;;2.77;2.57;;;23.00;98.70;;;;;;4955205;29;20426;-66
2023/07/10 04:54:22;;;;;;;3.53;3.33;;;23.10;98.50;;;;;;4954694;28;20217;-66
2023/07/10 04:56:47;;;;;;;4.60;3.60;;;23.00;98.40;;;;;;4955089;29;20545;-67
2023/07/10 04:59:13;;;;;;;5.10;3.20;;;23.00;98.60;;;;;;4967493;28;20260;-66
2023/07/10 05:01:39;;;;;;;2.63;2.43;;;23.00;98.40;;;;;;4970760;28;20172;-66
2023/07/10 05:04:04;;;;;;;6.03;3.57;;;23.00;97.90;;;;;;4954482;28;20462;-68
2023/07/10 05:06:30;;;;;;;3.63;3.33;;;23.00;98.00;;;;;;4965243;28;20301;-67
2023/07/10 05:08:58;;;;;;;3.63;3.33;;;23.00;98.10;;;;;;4974460;28;20564;-66
2023/07/10 05:11:27;;;;;;;3.37;3.07;;;23.00;98.40;;;;;;4974189;28;20173;-68
2023/07/10 05:13:53;;;;;;;3.60;3.30;;;23.10;98.60;;;;;;4973182;28;21018;-67
2023/07/10 05:16:18;;;;;;;3.20;3.00;;;23.20;98.80;;;;;;4974089;28;20524;-68
2023/07/10 05:18:44;;;;;;;3.83;3.50;;;23.40;98.50;;;;;;4974174;28;20175;-67
2023/07/10 05:21:09;;;;;;;3.63;3.30;;;23.60;98.10;;;;;;4974068;28;20533;-65
2023/07/10 05:23:35;;;;;;;3.60;3.13;;;23.80;97.50;;;;;;4973764;28;20211;-65
2023/07/10 05:26:05;;;;;;;3.03;2.77;;;24.10;97.00;;;;;;4974075;28;20262;-65
2023/07/10 05:28:30;;;;;;;3.87;3.40;;;24.30;96.40;;;;;;4960346;28;20181;-67
2023/07/10 05:30:58;;;;;;;3.27;2.40;;;24.40;96.00;;;;;;4938689;29;20432;-66
2023/07/10 05:33:24;;;;;;;2.80;2.60;;;24.50;96.10;;;;;;4957974;29;20185;-65
2023/07/10 05:36:02;;;;;;;3.00;2.80;;;24.50;96.10;;;;;;4958070;29;20835;-65
2023/07/10 05:38:30;;;;;;;3.37;3.10;;;24.40;96.00;;;;;;4958417;29;20400;-68
2023/07/10 05:40:56;;;;;;;2.90;2.70;;;24.40;96.10;;;;;;4958244;28;20503;-64
2023/07/10 05:43:22;;;;;;;3.87;3.47;;;24.70;96.40;;;;;;4971654;28;20570;-64
2023/07/10 05:45:49;;;;;;;4.20;3.50;;;25.10;95.70;;;;;;4977259;28;20195;-64
2023/07/10 05:48:15;;;;;;;3.93;3.63;;;25.40;94.60;;;;;;4960361;28;20425;-64
2023/07/10 05:50:43;;;;;;;4.60;4.10;;;25.70;94.10;;;;;;4977346;28;20436;-64
2023/07/10 05:53:08;;;;;;;4.20;3.70;;;25.90;93.50;;;;;;4977316;28;20211;-66
2023/07/10 05:55:34;;;;;;;3.63;3.30;;;26.10;93.10;;;;;;4976858;28;20406;-64
2023/07/10 05:57:59;;;;;;;3.60;3.30;;;26.30;92.90;;;;;;4963692;28;20185;-65
2023/07/10 06:00:25;;;;;;;3.20;3.00;;;26.50;92.90;;;;;;4957962;29;20184;-63
2023/07/10 06:02:52;;;;;;;4.27;3.83;;;26.80;92.20;;;;;;4957797;29;20179;-64
2023/07/10 06:05:18;;;;;;;3.87;3.57;;;27.00;91.80;;;;;;4961387;28;20454;-65
2023/07/10 06:07:44;;;;;;;3.00;2.77;;;27.20;91.20;;;;;;4973255;28;20498;-64
2023/07/10 06:10:09;;;;;;;7.80;4.40;;;27.30;90.80;;;;;;4957751;28;20174;-64
2023/07/10 06:12:35;;;;;;;5.67;3.30;;;27.30;91.20;;;;;;4957610;29;20228;-66
2023/07/10 06:15:00;;;;;;;3.80;3.50;;;27.20;91.20;;;;;;4957294;28;20196;-66
2023/07/10 06:17:26;;;;;;;3.40;3.20;;;27.00;91.20;;;;;;4957470;29;20197;-63
2023/07/10 06:19:52;;;;;;;4.47;3.67;;;27.00;91.40;;;;;;4957711;29;20187;-65
2023/07/10 06:22:17;;;;;;;3.70;3.40;;;27.00;91.40;;;;;;4957478;29;20688;-63
2023/07/10 06:24:43;;;;;;;5.10;4.07;;;27.00;91.40;;;;;;4956730;29;20206;-64
2023/07/10 06:27:10;;;;;;;3.57;3.27;;;27.10;91.40;;;;;;4957256;28;20191;-64
2023/07/10 06:29:36;;;;;;;5.63;3.23;;;27.20;91.20;;;;;;4957470;28;20198;-61
2023/07/10 06:32:03;;;;;;;4.57;3.30;;;27.40;91.30;;;;;;4957320;29;20846;-62
2023/07/10 06:34:29;;;;;;;4.00;3.60;;;27.60;91.20;;;;;;4956883;28;20851;-65
2023/07/10 06:36:55;;;;;;;3.83;3.53;;;27.80;90.90;;;;;;4957201;29;20884;-62
2023/07/10 06:39:20;;;;;;;4.27;3.20;;;28.20;90.60;;;;;;4957306;29;20441;-63
2023/07/10 06:41:46;;;;;;;3.73;3.43;;;28.50;90.00;;;;;;4956668;28;20598;-64
2023/07/10 06:44:12;;;;;;;3.53;3.23;;;28.70;89.10;;;;;;4956030;28;20246;-62
2023/07/10 06:46:37;;;;;;;3.80;3.50;;;28.80;87.70;;;;;;4956947;29;20228;-65
2023/07/10 06:49:03;;;;;;;3.53;3.30;;;28.80;87.70;;;;;;4957086;29;20168;-64
2023/07/10 06:51:29;;;;;;;4.00;3.60;;;28.70;87.50;;;;;;4957080;29;20237;-61
2023/07/10 06:53:54;;;;;;;3.80;3.50;;;28.70;87.10;;;;;;4956457;29;20181;-62
2023/07/10 06:56:20;;;;;;;3.73;3.43;;;28.70;86.80;;;;;;4956887;29;20432;-66
2023/07/10 06:58:46;;;;;;;3.50;3.30;;;28.70;87.60;;;;;;4957055;29;20262;-61
2023/07/10 07:01:11;;;;;;;3.70;3.40;;;28.60;88.00;;;;;;4939594;29;20207;-65
2023/07/10 07:03:40;;;;;;;3.70;3.40;;;28.60;87.10;;;;;;4956384;29;20208;-64
2023/07/10 07:06:07;;;;;;;4.57;3.73;;;28.70;86.90;;;;;;4956823;29;20192;-63
2023/07/10 07:08:34;;;;;;;4.20;3.90;;;28.70;86.90;;;;;;4956473;29;20550;-63
2023/07/10 07:11:00;;;;;;;4.13;3.77;;;28.80;87.70;;;;;;4956647;29;20375;-64
2023/07/10 07:13:25;;;;;;;3.47;3.17;;;29.00;87.20;;;;;;4956913;29;20383;-63
2023/07/10 07:15:53;;;;;;;4.17;3.87;;;29.30;87.00;;;;;;4956691;29;20188;-67
2023/07/10 07:18:23;;;;;;;3.73;3.10;;;29.70;85.70;;;;;;4956561;28;20184;-67
2023/07/10 07:20:49;;;;;;;3.60;3.30;;;30.00;84.60;;;;;;4956557;29;20411;-67
2023/07/10 07:23:15;;;;;;;4.23;3.90;;;30.30;84.40;;;;;;4956324;29;20510;-66
2023/07/10 07:25:44;;;;;;;4.53;4.17;;;30.60;84.00;;;;;;4938666;29;20404;-64
2023/07/10 07:28:10;;;;;;;3.47;3.17;;;30.90;83.50;;;;;;4956458;28;20790;-66
2023/07/10 07:30:36;;;;;;;3.73;3.50;;;31.10;81.20;;;;;;4956332;29;20402;-66
2023/07/10 07:33:02;;;;;;;3.60;3.30;;;31.30;80.40;;;;;;4956347;29;20424;-65
2023/07/10 07:35:28;;;;;;;5.30;4.83;;;31.40;79.70;;;;;;4955984;29;20199;-63
2023/07/10 07:37:53;;;;;;;4.63;4.33;;;31.30;80.40;;;;;;4956259;29;20177;-64
2023/07/10 07:40:19;;;;;;;4.60;4.20;;;31.10;80.20;;;;;;4956271;28;20425;-63
2023/07/10 07:42:46;;;;;;;4.67;4.10;;;31.00;81.10;;;;;;4955943;29;20173;-65
2023/07/10 07:45:13;;;;;;;3.33;3.03;;;31.00;82.50;;;;;;4955506;29;20173;-64
2023/07/10 07:47:40;;;;;;;3.80;3.50;;;31.30;83.70;;;;;;4955944;28;20420;-64
2023/07/10 07:50:07;;;;;;;3.93;3.53;;;32.10;81.50;;;;;;4956019;29;20420;-66
2023/07/10 07:52:33;;;;;;;3.50;3.20;;;33.20;77.90;;;;;;4955546;29;20869;-66
2023/07/10 07:54:58;;;;;;;3.17;2.90;;;34.10;73.60;;;;;;4955291;28;20435;-66
2023/07/10 07:57:24;;;;;;;3.80;3.50;;;35.00;72.60;;;;;;4955723;29;20200;-64
2023/07/10 07:59:51;;;;;;;3.63;3.30;;;35.80;69.10;;;;;;4938714;29;20173;-64
2023/07/10 08:02:16;;;;;;;3.17;2.97;;;36.60;67.60;;;;;;4956278;29;20177;-66
2023/07/10 08:04:42;;;;;;;3.10;2.90;;;37.30;65.30;;;;;;4955440;29;20468;-63
2023/07/10 08:07:08;;;;;;;2.60;2.40;;;37.80;64.10;;;;;;4955317;29;20227;-66
2023/07/10 08:09:34;;;;;;;4.07;3.77;;;38.40;61.80;;;;;;4956348;29;20173;-63
2023/07/10 08:12:00;;;;;;;3.07;2.83;;;38.60;59.60;;;;;;4955692;29;20173;-64
2023/07/10 08:14:25;;;;;;;3.20;3.00;;;38.90;59.40;;;;;;4955250;29;20412;-67
2023/07/10 08:16:51;;;;;;;2.90;2.73;;;39.00;58.90;;;;;;4955522;29;20204;-64
2023/07/10 08:19:17;;;;;;;3.30;3.10;;;39.10;59.00;;;;;;4955468;28;20185;-65
2023/07/10 08:21:43;;;;;;;3.30;3.10;;;39.20;58.30;;;;;;4966076;28;20188;-67
2023/07/10 08:24:08;;;;;;;2.90;2.80;;;39.70;58.00;;;;;;4957175;28;20291;-66
2023/07/10 08:26:34;;;;;;;2.73;2.53;;;40.10;57.30;;;;;;4955203;29;20196;-63
2023/07/10 08:29:23;;;;;;;2.93;2.83;;;40.50;56.10;;;;;;4955622;29;20176;-67
2023/07/10 08:31:49;;;;;;;2.90;2.70;;;40.60;55.90;;;;;;4955319;28;20173;-67
2023/07/10 08:34:15;;;;;;;2.90;2.80;;;40.50;56.10;;;;;;4954747;29;20420;-67
2023/07/10 08:36:40;;;;;;;3.60;3.40;;;40.60;55.70;;;;;;4960313;28;20207;-68
2023/07/10 08:39:06;;;;;;;3.17;2.97;;;40.60;56.10;;;;;;4974613;28;20710;-63
2023/07/10 08:41:31;;;;;;;3.60;3.40;;;40.80;55.60;;;;;;4974513;28;20183;-64
2023/07/10 08:43:57;;;;;;;3.27;3.07;;;40.50;55.90;;;;;;4974163;28;20307;-67
2023/07/10 08:46:25;;;;;;;3.47;3.27;;;40.60;55.90;;;;;;4964483;28;20634;-64
2023/07/10 08:49:03;;;;;;;3.60;3.40;;;40.20;55.70;;;;;;4955004;28;20184;-64
2023/07/10 08:51:48;;;;;;;4.03;3.73;;;40.00;55.80;;;;;;4974576;28;20442;-64
2023/07/10 08:54:18;;;;;;;3.30;3.10;;;39.80;56.50;;;;;;4963274;28;20436;-63
2023/07/10 08:57:05;;;;;;;3.57;3.37;;;39.70;56.90;;;;;;4974312;28;20846;-66
2023/07/10 08:59:38;;;;;;;3.77;3.47;;;39.70;57.70;;;;;;4974862;28;20412;-64
2023/07/10 09:02:14;;;;;;;2.77;2.67;;;40.10;56.60;;;;;;4974113;28;20895;-65
2023/07/10 09:04:42;;;;;;;3.27;2.97;;;40.30;56.50;;;;;;4974137;28;20553;-61
2023/07/10 09:07:09;;;;;;;3.83;3.63;;;40.50;55.70;;;;;;4977170;28;20474;-63
2023/07/10 09:09:43;;;;;;;3.43;3.13;;;40.50;55.40;;;;;;4978163;28;20423;-63
2023/07/10 09:12:16;;;;;;;3.87;3.63;;;40.40;56.50;;;;;;4978273;28;20450;-63
2023/07/10 09:14:56;;;;;;;3.10;3.00;;;40.40;56.20;;;;;;4977320;28;20463;-62
2023/07/10 09:17:41;;;;;;;3.20;3.00;;;40.60;56.50;;;;;;4960383;28;20431;-63
2023/07/10 09:20:10;;;;;;;3.67;3.47;;;40.70;55.70;;;;;;4978168;28;20403;-63
2023/07/10 09:22:38;;;;;;;3.60;3.40;;;40.20;56.10;;;;;;4977877;28;20416;-63
2023/07/10 09:25:14;;;;;;;3.60;3.40;;;39.90;57.00;;;;;;4977644;28;20580;-64
2023/07/10 09:27:44;;;;;;;5.60;5.10;;;39.90;56.40;;;;;;4978220;28;20496;-63
2023/07/10 09:30:51;;;;;;;4.13;3.83;;;39.70;56.90;;;;;;4977682;28;20415;-63
2023/07/10 09:33:20;;;;;;;4.13;3.83;;;38.80;57.60;;;;;;4948654;28;20541;-62
2023/07/10 09:35:47;;;;;;;4.53;4.13;;;38.30;59.00;;;;;;4977546;28;20518;-58
2023/07/10 09:38:18;;;;;;;4.10;3.70;;;38.20;59.50;;;;;;4977539;28;20478;-61
2023/07/10 09:40:48;;;;;;;4.40;4.00;;;37.70;59.70;;;;;;4977800;28;20411;-61
2023/07/10 09:43:20;;;;;;;3.77;3.47;;;37.50;61.10;;;;;;4977514;28;20424;-58
2023/07/10 09:45:48;;;;;;;4.50;4.10;;;37.60;60.40;;;;;;4977331;28;20427;-62
2023/07/10 09:48:37;;;;;;;3.33;3.13;;;38.10;60.00;;;;;;4977629;28;20419;-61
2023/07/10 09:51:07;;;;;;;3.70;3.40;;;38.40;58.80;;;;;;4977465;28;20972;-58
2023/07/10 09:53:48;;;;;;;3.83;3.53;;;38.50;58.70;;;;;;4977158;28;20829;-58
2023/07/10 09:56:26;;;;;;;4.27;3.90;;;38.50;58.20;;;;;;4976939;28;20782;-61
2023/07/10 09:58:56;;;;;;;4.10;3.80;;;38.90;58.30;;;;;;4976166;28;20514;-61
2023/07/10 10:01:31;;;;;;;3.90;3.70;;;39.30;58.50;;;;;;4977192;28;20420;-62
2023/07/10 10:03:56;;;;;;;3.53;3.30;;;39.60;57.70;;;;;;4977142;28;20426;-57
2023/07/10 10:06:28;;;;;;;3.63;3.43;;;39.70;57.40;;;;;;4959700;28;20454;-58
2023/07/10 10:08:54;;;;;;;3.60;3.40;;;40.00;56.90;;;;;;4976811;28;20204;-60
2023/07/10 10:11:36;;;;;;;3.50;3.30;;;40.40;56.50;;;;;;4959884;28;20989;-62
2023/07/10 10:14:05;;;;;;;3.83;3.23;;;40.50;55.90;;;;;;4975851;28;20546;-57
2023/07/10 10:16:53;;;;;;;3.00;2.90;;;40.40;56.00;;;;;;4976743;28;20440;-61
2023/07/10 10:19:25;;;;;;;4.17;3.90;;;40.60;55.80;;;;;;4976946;28;20412;-59
2023/07/10 10:21:51;;;;;;;4.33;4.03;;;40.40;55.30;;;;;;4977126;28;20407;-61
2023/07/10 10:24:17;;;;;;;3.50;3.30;;;40.40;55.70;;;;;;4976690;28;20412;-60
2023/07/10 10:27:00;;;;;;;3.70;3.50;;;40.20;55.40;;;;;;4976750;28;20204;-57
2023/07/10 10:29:33;;;;;;;4.10;3.80;;;40.20;55.30;;;;;;4977185;28;20587;-58
2023/07/10 10:32:07;;;;;;;3.83;3.63;;;40.20;55.70;;;;;;4976995;28;20414;-57
2023/07/10 10:34:33;;;;;;;4.03;3.73;;;39.60;55.20;;;;;;4976481;28;20454;-58
2023/07/10 10:37:22;;;;;;;4.50;4.20;;;38.90;56.30;;;;;;4975956;28;20447;-59
2023/07/10 10:40:20;;;;;;;3.53;3.30;;;37.80;57.20;;;;;;4957334;29;20184;-60
2023/07/10 10:42:52;;;;;;;4.43;4.03;;;37.60;59.00;;;;;;4955586;29;20507;-61
2023/07/10 10:45:36;;;;;;;4.40;3.63;;;37.50;59.60;;;;;;4956694;29;20412;-62
2023/07/10 10:48:27;;;;;;;4.67;4.27;;;37.90;58.60;;;;;;4957565;28;20444;-60
2023/07/10 10:51:10;;;;;;;4.03;3.73;;;38.00;58.50;;;;;;4957270;28;20500;-61
2023/07/10 10:53:59;;;;;;;3.87;3.57;;;38.10;58.60;;;;;;4956775;29;20452;-58
2023/07/10 10:56:29;;;;;;;3.80;3.50;;;38.40;58.30;;;;;;4956925;29;20427;-62
2023/07/10 10:59:32;;;;;;;4.30;4.00;;;38.60;57.70;;;;;;4956846;29;20425;-57
2023/07/10 11:02:20;;;;;;;4.37;4.07;;;39.00;57.10;;;;;;4956818;29;20416;-58
2023/07/10 11:04:49;;;;;;;4.30;3.77;;;39.20;56.80;;;;;;4956489;29;20467;-58
2023/07/10 11:07:19;;;;;;;4.40;4.10;;;39.20;56.90;;;;;;4956616;29;20858;-61
2023/07/10 11:09:59;;;;;;;4.37;4.07;;;39.10;57.20;;;;;;4939423;29;20416;-59
2023/07/10 11:12:31;;;;;;;5.03;4.57;;;38.90;57.10;;;;;;4956679;29;20424;-60
2023/07/10 11:15:02;;;;;;;4.90;4.47;;;38.30;57.40;;;;;;4938934;29;20597;-58
2023/07/10 11:17:28;;;;;;;4.17;3.87;;;37.50;58.10;;;;;;4956223;28;20428;-58
2023/07/10 11:19:54;;;;;;;4.03;3.67;;;37.20;59.60;;;;;;4956505;28;20424;-58
2023/07/10 11:22:35;;;;;;;4.27;3.97;;;36.90;59.80;;;;;;4956274;29;20508;-61
2023/07/10 11:25:02;;;;;;;4.40;4.10;;;36.60;59.80;;;;;;4956024;29;20185;-58
2023/07/10 11:27:30;;;;;;;4.30;3.97;;;36.00;60.30;;;;;;4956070;29;20455;-59
2023/07/10 11:30:08;;;;;;;4.17;3.87;;;35.50;61.70;;;;;;4955650;28;20755;-58
2023/07/10 11:33:02;;;;;;;4.13;3.83;;;35.10;63.30;;;;;;4956339;29;20413;-61
2023/07/10 11:35:30;;;;;;;3.97;3.67;;;34.80;63.20;;;;;;4955732;29;20432;-60
2023/07/10 11:38:01;;;;;;;4.37;3.70;;;34.60;63.70;;;;;;4941312;28;20880;-62
2023/07/10 11:40:27;;;;;;;5.23;3.97;;;34.50;64.40;;;;;;4975477;28;20406;-61
2023/07/10 11:43:01;;;;;;;6.53;4.70;;;34.40;65.40;;;;;;4975324;28;20404;-61
2023/07/10 11:45:44;;;;;;;4.20;3.90;;;34.40;65.60;;;;;;4974427;28;20193;-61
2023/07/10 11:48:42;;;;;;;4.07;3.77;;;34.30;63.70;;;;;;4957732;28;20415;-62
2023/07/10 11:51:29;;;;;;;3.70;3.40;;;34.00;64.10;;;;;;4975018;28;20404;-63
2023/07/10 11:54:10;;;;;;;3.77;3.43;;;33.70;64.80;;;;;;4974623;28;20476;-62
2023/07/10 11:56:36;;;;;;;4.57;3.60;;;33.80;65.50;;;;;;4957683;28;20494;-63
2023/07/10 11:59:21;;;;;;;3.77;3.47;;;33.90;64.80;;;;;;4975270;28;20400;-63
2023/07/10 12:01:47;;;;;;;3.60;3.40;;;34.00;63.80;;;;;;4957872;28;20221;-63
2023/07/10 12:04:16;;;;;;;3.57;3.27;;;34.10;63.00;;;;;;4974636;28;20411;-62
2023/07/10 12:06:45;;;;;;;3.07;2.83;;;34.10;62.10;;;;;;4975016;28;20232;-63
2023/07/10 12:09:11;;;;;;;4.73;3.63;;;34.00;62.30;;;;;;4974866;28;20775;-62
2023/07/10 12:11:39;;;;;;;4.30;3.60;;;34.00;61.60;;;;;;4974786;28;20404;-63
2023/07/10 12:14:11;;;;;;;3.27;3.07;;;34.00;61.70;;;;;;4974700;28;20207;-63
2023/07/10 12:16:48;;;;;;;3.50;3.30;;;34.00;60.30;;;;;;4975020;28;20420;-63
2023/07/10 12:19:16;;;;;;;3.63;3.07;;;33.90;59.10;;;;;;4973841;28;21084;-65
2023/07/10 12:21:43;;;;;;;2.70;2.50;;;33.80;59.50;;;;;;4974758;28;20408;-65
2023/07/10 12:24:14;;;;;;;3.87;3.57;;;33.70;59.20;;;;;;4974422;28;20482;-63
2023/07/10 12:26:40;;;;;;;3.40;3.20;;;33.80;58.90;;;;;;4974691;28;20442;-62
2023/07/10 12:29:14;;;;;;;2.90;2.70;;;34.00;58.00;;;;;;4974480;28;20418;-61
2023/07/10 12:31:41;;;;;;;3.20;3.00;;;34.00;57.70;;;;;;4975101;28;20502;-66
2023/07/10 12:34:25;;;;;;;3.67;3.37;;;33.90;58.00;;;;;;4974306;28;20810;-60
2023/07/10 12:36:53;;;;;;;3.77;3.47;;;34.00;58.70;;;;;;4974477;28;20498;-66
2023/07/10 12:39:20;;;;;;;3.60;3.30;;;34.00;58.70;;;;;;4974565;28;20494;-63
2023/07/10 12:41:46;;;;;;;3.07;2.83;;;34.00;58.40;;;;;;4973579;28;20474;-59
2023/07/10 12:44:24;;;;;;;4.10;3.80;;;34.00;58.40;;;;;;4973883;28;20411;-61
2023/07/10 12:47:08;;;;;;;4.60;3.70;;;34.10;58.70;;;;;;4974041;28;20286;-59
2023/07/10 12:49:34;;;;;;;3.73;3.43;;;34.10;58.90;;;;;;4974396;28;20412;-59
2023/07/10 12:52:04;;;;;;;3.90;3.60;;;34.10;58.90;;;;;;4974416;28;20502;-59
2023/07/10 12:54:43;;;;;;;5.00;4.67;;;34.20;58.10;;;;;;4973816;28;20461;-62
2023/07/10 12:57:15;;;;;;;3.53;3.23;;;34.10;57.60;;;;;;4974065;28;20427;-60
2023/07/10 12:59:41;;;;;;;3.33;3.03;;;34.10;57.30;;;;;;4974268;28;20404;-61
2023/07/10 13:02:17;;;;;;;4.20;3.90;;;34.20;57.70;;;;;;4974261;28;20467;-61
2023/07/10 13:04:59;;;;;;;3.20;3.00;;;34.30;57.20;;;;;;4972714;28;20422;-58
2023/07/10 13:07:37;;;;;;;3.63;3.33;;;34.30;56.90;;;;;;4972700;28;20512;-58
2023/07/10 13:10:28;;;;;;;3.80;3.60;;;34.30;56.80;;;;;;4972629;28;20506;-59
2023/07/10 13:12:59;;;;;;;3.53;3.23;;;34.20;57.60;;;;;;4972790;28;20802;-61
2023/07/10 13:15:35;;;;;;;3.70;3.40;;;34.00;57.40;;;;;;4972671;28;22209;-62
2023/07/10 13:18:01;;;;;;;3.90;3.50;;;33.90;58.40;;;;;;4973213;28;20490;-59
2023/07/10 13:20:28;;;;;;;4.13;3.57;;;33.80;57.80;;;;;;4974053;28;20426;-58
2023/07/10 13:22:59;;;;;;;4.47;4.07;;;33.70;57.70;;;;;;4974037;28;20447;-60
2023/07/10 13:25:29;;;;;;;5.73;3.70;;;33.60;57.90;;;;;;4973947;28;20383;-59
2023/07/10 13:27:55;;;;;;;4.10;3.80;;;33.50;58.10;;;;;;4956943;28;20399;-58
2023/07/10 13:30:22;;;;;;;4.00;3.70;;;33.50;58.40;;;;;;4974227;28;20423;-61
2023/07/10 13:32:48;;;;;;;3.40;3.17;;;33.40;58.50;;;;;;4973999;28;20223;-61
2023/07/10 13:35:14;;;;;;;4.20;3.83;;;33.50;58.20;;;;;;4973884;28;20833;-58
2023/07/10 13:37:40;;;;;;;3.30;3.00;;;33.50;57.50;;;;;;4974096;28;20735;-58
2023/07/10 13:40:12;;;;;;;3.87;3.57;;;33.50;57.40;;;;;;4974197;28;20889;-61
2023/07/10 13:42:37;;;;;;;3.57;3.27;;;33.60;56.80;;;;;;4974220;28;20423;-59
2023/07/10 13:45:03;;;;;;;3.40;3.10;;;33.50;57.40;;;;;;4973841;28;20404;-61
2023/07/10 13:47:29;;;;;;;4.00;3.70;;;33.40;57.30;;;;;;4973913;28;20208;-61
2023/07/10 13:49:56;;;;;;;3.13;2.93;;;33.40;57.50;;;;;;4974058;28;20416;-59
2023/07/10 13:52:24;;;;;;;3.83;3.53;;;33.30;57.10;;;;;;4975531;28;20181;-59
2023/07/10 13:54:51;;;;;;;3.67;3.37;;;33.30;57.60;;;;;;4976898;28;20533;-60
2023/07/10 13:57:22;;;;;;;3.70;3.40;;;33.20;58.10;;;;;;4977101;28;20507;-60
2023/07/10 13:59:48;;;;;;;3.87;3.57;;;33.20;58.20;;;;;;4977237;28;20510;-60
2023/07/10 14:02:21;;;;;;;3.37;3.07;;;33.20;58.30;;;;;;4977369;28;20443;-60
2023/07/10 14:04:48;;;;;;;4.33;3.93;;;33.20;58.30;;;;;;4976909;28;20267;-60
2023/07/10 14:07:16;;;;;;;4.00;3.70;;;33.10;58.50;;;;;;4976991;28;20422;-60
2023/07/10 14:09:41;;;;;;;5.17;4.67;;;33.10;58.40;;;;;;4976943;28;20419;-62
2023/07/10 14:12:13;;;;;;;5.60;4.23;;;33.00;58.90;;;;;;4959618;28;20412;-61
2023/07/10 14:14:39;;;;;;;7.90;3.00;;;32.80;59.00;;;;;;4976554;28;20216;-62
2023/07/10 14:17:05;;;;;;;3.13;2.93;;;32.70;58.70;;;;;;4976712;28;20432;-59
2023/07/10 14:19:30;;;;;;;3.20;3.00;;;32.70;59.50;;;;;;4976636;28;20546;-59
2023/07/10 14:21:56;;;;;;;3.93;3.53;;;32.80;59.20;;;;;;4976651;28;20403;-62
2023/07/10 14:24:21;;;;;;;3.63;3.33;;;32.80;59.20;;;;;;4976564;28;20650;-62
2023/07/10 14:26:47;;;;;;;4.83;3.60;;;32.90;59.00;;;;;;4976716;28;20606;-60
2023/07/10 14:29:16;;;;;;;3.20;2.70;;;32.90;59.00;;;;;;4976584;28;20172;-58
2023/07/10 14:31:41;;;;;;;3.37;3.07;;;32.90;59.20;;;;;;4976676;28;20238;-59
2023/07/10 14:34:07;;;;;;;6.30;3.30;;;32.90;58.90;;;;;;4976282;28;20430;-58
2023/07/10 14:36:32;;;;;;;3.40;3.10;;;32.90;58.60;;;;;;4976515;28;20199;-59
2023/07/10 14:38:58;;;;;;;3.00;2.80;;;32.80;58.80;;;;;;4976379;28;20175;-61
2023/07/10 14:41:24;;;;;;;3.77;3.47;;;32.80;58.60;;;;;;4976395;28;20168;-61
2023/07/10 14:43:51;;;;;;;4.00;3.40;;;32.70;58.60;;;;;;4976153;28;20639;-59
2023/07/10 14:46:22;;;;;;;3.60;3.30;;;32.70;59.10;;;;;;4976258;28;20431;-58
2023/07/10 14:48:48;;;;;;;3.80;2.70;;;32.60;58.40;;;;;;4976425;28;20408;-61
2023/07/10 14:51:13;;;;;;;3.53;3.23;;;32.60;59.00;;;;;;4976428;28;20520;-61
2023/07/10 14:53:39;;;;;;;3.10;2.90;;;32.50;59.00;;;;;;4976138;28;20603;-61
2023/07/10 14:56:11;;;;;;;3.00;2.80;;;32.50;59.30;;;;;;4976175;28;20271;-59
2023/07/10 14:58:37;;;;;;;4.00;3.60;;;32.40;58.70;;;;;;4976180;28;20204;-58
2023/07/10 15:01:03;;;;;;;2.93;2.73;;;32.40;58.50;;;;;;4976270;28;20434;-61
2023/07/10 15:03:28;;;;;;;3.50;3.13;;;32.30;58.80;;;;;;4957486;28;20239;-59
2023/07/10 15:05:55;;;;;;;3.30;3.00;;;32.30;59.80;;;;;;4975911;28;20566;-59
2023/07/10 15:08:27;;;;;;;3.73;3.43;;;32.30;59.10;;;;;;4975778;28;20202;-61
2023/07/10 15:10:53;;;;;;;3.60;3.30;;;32.30;59.20;;;;;;4976205;28;20425;-61
2023/07/10 15:13:22;;;;;;;3.60;3.30;;;32.30;59.20;;;;;;4974462;28;20469;-60
2023/07/10 15:15:49;;;;;;;3.77;3.23;;;32.20;58.90;;;;;;4975761;28;20191;-62
2023/07/10 15:18:17;;;;;;;2.60;2.40;;;32.20;59.20;;;;;;4976139;28;20467;-58
2023/07/10 15:20:44;;;;;;;3.20;3.00;;;32.10;58.80;;;;;;4975939;28;20434;-61
2023/07/10 15:23:30;;;;;;;2.77;2.57;;;32.10;59.00;;;;;;4975701;28;20410;-58
2023/07/10 15:26:04;;;;;;;3.03;2.83;;;32.00;59.00;;;;;;4975477;28;20409;-59
2023/07/10 15:28:30;;;;;;;3.07;2.87;;;31.90;58.60;;;;;;4975701;28;20374;-60
2023/07/10 15:30:58;;;;;;;5.40;3.27;;;31.90;59.20;;;;;;4975518;28;20426;-59
2023/07/10 15:33:27;;;;;;;3.53;3.23;;;31.90;59.60;;;;;;4967704;28;20530;-57
2023/07/10 15:35:53;;;;;;;3.17;2.80;;;31.90;59.60;;;;;;4961007;28;20507;-62
2023/07/10 15:38:19;;;;;;;4.03;3.70;;;31.90;59.20;;;;;;4967304;28;20893;-59
2023/07/10 15:40:52;;;;;;;3.67;3.37;;;31.90;59.20;;;;;;4939893;29;20243;-64
2023/07/10 15:43:20;;;;;;;4.33;3.93;;;31.80;59.00;;;;;;4955957;29;20419;-65
2023/07/10 15:45:46;;;;;;;2.80;2.60;;;31.70;58.90;;;;;;4955770;29;20418;-66
2023/07/10 15:48:12;;;;;;;3.50;3.20;;;31.70;58.90;;;;;;4956075;28;20421;-65
2023/07/10 15:50:38;;;;;;;3.40;3.20;;;31.60;59.40;;;;;;4955886;29;20181;-66
2023/07/10 15:53:04;;;;;;;3.80;3.50;;;31.60;59.30;;;;;;4955657;29;20187;-64
2023/07/10 15:55:31;;;;;;;4.73;3.00;;;31.60;59.20;;;;;;4955339;29;20400;-67
2023/07/10 15:57:58;;;;;;;3.00;2.80;;;31.60;59.50;;;;;;4955582;28;20405;-65
2023/07/10 16:00:35;;;;;;;3.63;3.33;;;31.50;59.50;;;;;;4956051;29;20402;-67
2023/07/10 16:03:03;;;;;;;3.20;3.00;;;31.50;59.50;;;;;;4955579;28;20964;-67
2023/07/10 16:05:31;;;;;;;3.43;3.17;;;31.50;59.00;;;;;;4955345;29;20403;-66
2023/07/10 16:07:58;;;;;;;3.20;2.90;;;31.50;59.50;;;;;;4955391;29;20429;-66
2023/07/10 16:10:25;;;;;;;3.20;3.00;;;31.40;59.20;;;;;;4955739;28;20761;-66
2023/07/10 16:12:53;;;;;;;3.00;2.80;;;31.40;59.40;;;;;;4955488;29;20496;-65
2023/07/10 16:15:21;;;;;;;3.00;2.70;;;31.30;59.60;;;;;;4954808;28;20430;-64
2023/07/10 16:17:49;;;;;;;2.80;2.60;;;31.20;59.70;;;;;;4955621;28;20888;-66
2023/07/10 16:20:17;;;;;;;3.33;2.80;;;31.20;59.40;;;;;;4955403;28;20375;-67
2023/07/10 16:22:54;;;;;;;3.20;2.80;;;31.10;59.60;;;;;;4955208;29;20760;-66
2023/07/10 16:25:20;;;;;;;3.40;3.20;;;31.10;60.00;;;;;;4954781;28;20907;-64
2023/07/10 16:27:45;;;;;;;2.93;2.73;;;31.10;59.60;;;;;;4955098;29;20398;-66
2023/07/10 16:30:23;;;;;;;3.30;3.00;;;31.00;59.70;;;;;;4955249;29;20169;-65
2023/07/10 16:32:50;;;;;;;2.83;2.60;;;30.90;59.80;;;;;;4955248;28;20188;-61
2023/07/10 16:35:19;;;;;;;4.93;2.43;;;30.90;59.70;;;;;;4965464;28;20810;-62
2023/07/10 16:37:45;;;;;;;2.90;2.70;;;30.80;59.60;;;;;;4956912;28;20412;-61
2023/07/10 16:40:20;;;;;;;3.63;3.33;;;30.70;59.60;;;;;;4974322;28;20444;-62
2023/07/10 16:42:46;;;;;;;3.67;2.93;;;30.70;60.00;;;;;;4974062;28;20392;-61
2023/07/10 16:45:22;;;;;;;3.30;3.10;;;30.60;60.00;;;;;;4973362;28;20742;-62
2023/07/10 16:47:50;;;;;;;3.00;2.80;;;30.50;60.40;;;;;;4971776;28;20420;-62
2023/07/10 16:50:18;;;;;;;2.93;2.73;;;30.40;60.40;;;;;;4974039;28;20419;-63
2023/07/10 16:52:44;;;;;;;2.87;2.67;;;30.40;60.40;;;;;;4974523;28;20762;-62
2023/07/10 16:55:18;;;;;;;2.70;2.50;;;30.40;60.80;;;;;;4973943;28;20429;-61
2023/07/10 16:57:46;;;;;;;3.13;2.87;;;30.40;60.60;;;;;;4970268;28;20924;-63
2023/07/10 17:00:14;;;;;;;2.80;2.60;;;30.30;60.10;;;;;;4956687;28;20428;-63
2023/07/10 17:02:41;;;;;;;2.47;2.27;;;30.30;60.40;;;;;;4974213;28;20438;-64
2023/07/10 17:05:11;;;;;;;3.10;2.63;;;30.30;60.40;;;;;;4973584;28;20419;-65